sensor_id;sensor_type;location;lat;lon;timestamp;temperature;humidity
42907;DHT22;28552;51.146;6.576;2023-04-30T00:01:27;8.30;99.90
42907;DHT22;28552;51.146;6.576;2023-04-30T00:04:27;8.30;99.90
42907;DHT22;28552;51.146;6.576;2023-04-30T00:07:28;8.20;99.90
42907;DHT22;28552;51.146;6.576;2023-04-30T00:10:28;8.20;99.90
42907;DHT22;28552;51.146;6.576;2023-04-30T00:13:29;8.20;99.90
42907;DHT22;28552;51.146;6.576;2023-04-30T00:16:29;8.20;99.90
42907;DHT22;28552;51.146;6.576;2023-04-30T00:19:30;8.10;99.90
42907;DHT22;28552;51.146;6.576;2023-04-30T00:22:30;8.10;99.90
42907;DHT22;28552;51.146;6.576;2023-04-30T00:25:32;8.00;99.90
42907;DHT22;28552;51.146;6.576;2023-04-30T00:28:33;8.00;99.90
42907;DHT22;28552;51.146;6.576;2023-04-30T00:31:33;8.00;99.90
42907;DHT22;28552;51.146;6.576;2023-04-30T00:34:34;8.00;99.90
42907;DHT22;28552;51.146;6.576;2023-04-30T00:37:34;7.90;99.90
42907;DHT22;28552;51.146;6.576;2023-04-30T00:40:36;7.90;99.90
42907;DHT22;28552;51.146;6.576;2023-04-30T00:43:37;7.90;99.90
42907;DHT22;28552;51.146;6.576;2023-04-30T00:46:37;7.90;99.90
42907;DHT22;28552;51.146;6.576;2023-04-30T00:49:38;7.80;99.90
42907;DHT22;28552;51.146;6.576;2023-04-30T00:52:38;7.70;99.90
42907;DHT22;28552;51.146;6.576;2023-04-30T00:55:40;7.70;99.90
42907;DHT22;28552;51.146;6.576;2023-04-30T00:58:41;7.60;99.90
42907;DHT22;28552;51.146;6.576;2023-04-30T01:01:42;7.60;99.90
42907;DHT22;28552;51.146;6.576;2023-04-30T01:04:42;7.60;99.90
42907;DHT22;28552;51.146;6.576;2023-04-30T01:07:43;7.50;99.90
42907;DHT22;28552;51.146;6.576;2023-04-30T01:10:51;7.40;99.90
42907;DHT22;28552;51.146;6.576;2023-04-30T01:14:09;7.40;99.90
42907;DHT22;28552;51.146;6.576;2023-04-30T01:17:20;7.30;99.90
42907;DHT22;28552;51.146;6.576;2023-04-30T01:20:23;7.40;99.90
42907;DHT22;28552;51.146;6.576;2023-04-30T01:23:43;7.30;99.90
42907;DHT22;28552;51.146;6.576;2023-04-30T01:30:18;7.30;99.90
42907;DHT22;28552;51.146;6.576;2023-04-30T01:33:19;7.20;99.90
42907;DHT22;28552;51.146;6.576;2023-04-30T01:39:35;7.10;99.90
42907;DHT22;28552;51.146;6.576;2023-04-30T01:42:41;7.00;99.90
42907;DHT22;28552;51.146;6.576;2023-04-30T01:45:57;7.00;99.90
42907;DHT22;28552;51.146;6.576;2023-04-30T01:49:31;7.00;99.90
42907;DHT22;28552;51.146;6.576;2023-04-30T01:56:02;6.90;99.90
42907;DHT22;28552;51.146;6.576;2023-04-30T01:59:04;6.90;99.90
42907;DHT22;28552;51.146;6.576;2023-04-30T02:02:05;6.90;99.90
42907;DHT22;28552;51.146;6.576;2023-04-30T02:05:06;6.90;99.90
42907;DHT22;28552;51.146;6.576;2023-04-30T02:08:07;6.80;99.90
42907;DHT22;28552;51.146;6.576;2023-04-30T02:11:07;6.80;99.90
42907;DHT22;28552;51.146;6.576;2023-04-30T02:14:08;6.80;99.90
42907;DHT22;28552;51.146;6.576;2023-04-30T02:17:08;6.70;99.90
42907;DHT22;28552;51.146;6.576;2023-04-30T02:20:09;6.60;99.90
42907;DHT22;28552;51.146;6.576;2023-04-30T02:23:10;6.60;99.90
42907;DHT22;28552;51.146;6.576;2023-04-30T02:26:11;6.50;99.90
42907;DHT22;28552;51.146;6.576;2023-04-30T02:29:11;6.40;99.90
42907;DHT22;28552;51.146;6.576;2023-04-30T02:32:12;6.40;99.90
42907;DHT22;28552;51.146;6.576;2023-04-30T02:35:12;6.30;99.90
42907;DHT22;28552;51.146;6.576;2023-04-30T02:38:13;6.20;99.90
42907;DHT22;28552;51.146;6.576;2023-04-30T02:41:13;6.00;99.90
42907;DHT22;28552;51.146;6.576;2023-04-30T02:44:14;6.00;99.90
42907;DHT22;28552;51.146;6.576;2023-04-30T02:47:14;5.90;99.90
42907;DHT22;28552;51.146;6.576;2023-04-30T02:50:15;5.80;99.90
42907;DHT22;28552;51.146;6.576;2023-04-30T02:53:16;5.80;99.90
42907;DHT22;28552;51.146;6.576;2023-04-30T02:56:16;5.80;99.90
42907;DHT22;28552;51.146;6.576;2023-04-30T02:59:17;5.80;99.90
42907;DHT22;28552;51.146;6.576;2023-04-30T03:02:17;5.80;99.90
42907;DHT22;28552;51.146;6.576;2023-04-30T03:05:20;5.80;99.90
42907;DHT22;28552;51.146;6.576;2023-04-30T03:08:21;5.80;99.90
42907;DHT22;28552;51.146;6.576;2023-04-30T03:11:21;5.80;99.90
42907;DHT22;28552;51.146;6.576;2023-04-30T03:14:22;5.80;99.90
42907;DHT22;28552;51.146;6.576;2023-04-30T03:17:23;5.80;99.90
42907;DHT22;28552;51.146;6.576;2023-04-30T03:20:24;5.80;99.90
42907;DHT22;28552;51.146;6.576;2023-04-30T03:23:26;5.80;99.90
42907;DHT22;28552;51.146;6.576;2023-04-30T03:26:27;5.80;99.90
42907;DHT22;28552;51.146;6.576;2023-04-30T03:29:28;5.80;99.90
42907;DHT22;28552;51.146;6.576;2023-04-30T03:32:28;5.80;99.90
42907;DHT22;28552;51.146;6.576;2023-04-30T03:35:29;5.80;99.90
42907;DHT22;28552;51.146;6.576;2023-04-30T03:38:29;5.80;99.90
42907;DHT22;28552;51.146;6.576;2023-04-30T03:41:30;5.70;99.90
42907;DHT22;28552;51.146;6.576;2023-04-30T03:44:30;5.70;99.90
42907;DHT22;28552;51.146;6.576;2023-04-30T03:47:31;5.50;99.90
42907;DHT22;28552;51.146;6.576;2023-04-30T03:50:32;5.40;99.90
42907;DHT22;28552;51.146;6.576;2023-04-30T03:53:32;5.40;99.90
42907;DHT22;28552;51.146;6.576;2023-04-30T03:56:34;5.30;99.90
42907;DHT22;28552;51.146;6.576;2023-04-30T03:59:35;5.30;99.90
42907;DHT22;28552;51.146;6.576;2023-04-30T04:02:36;5.20;99.90
42907;DHT22;28552;51.146;6.576;2023-04-30T04:05:36;5.20;99.90
42907;DHT22;28552;51.146;6.576;2023-04-30T04:08:37;5.20;99.90
42907;DHT22;28552;51.146;6.576;2023-04-30T04:11:38;5.20;99.90
42907;DHT22;28552;51.146;6.576;2023-04-30T04:14:38;5.20;99.90
42907;DHT22;28552;51.146;6.576;2023-04-30T04:17:39;5.10;99.90
42907;DHT22;28552;51.146;6.576;2023-04-30T04:20:39;5.00;99.90
42907;DHT22;28552;51.146;6.576;2023-04-30T04:23:40;5.00;99.90
42907;DHT22;28552;51.146;6.576;2023-04-30T04:26:40;5.00;99.90
42907;DHT22;28552;51.146;6.576;2023-04-30T04:29:41;5.10;99.90
42907;DHT22;28552;51.146;6.576;2023-04-30T04:32:42;5.20;99.90
42907;DHT22;28552;51.146;6.576;2023-04-30T04:35:46;5.20;99.90
42907;DHT22;28552;51.146;6.576;2023-04-30T04:38:46;5.30;99.90
42907;DHT22;28552;51.146;6.576;2023-04-30T04:41:48;5.30;99.90
42907;DHT22;28552;51.146;6.576;2023-04-30T04:44:48;5.40;99.90
42907;DHT22;28552;51.146;6.576;2023-04-30T04:47:49;5.40;99.90
42907;DHT22;28552;51.146;6.576;2023-04-30T04:50:50;5.50;99.90
42907;DHT22;28552;51.146;6.576;2023-04-30T04:53:50;5.40;99.90
42907;DHT22;28552;51.146;6.576;2023-04-30T04:56:51;5.40;99.90
42907;DHT22;28552;51.146;6.576;2023-04-30T04:59:51;5.40;99.90
42907;DHT22;28552;51.146;6.576;2023-04-30T05:02:52;5.40;99.90
42907;DHT22;28552;51.146;6.576;2023-04-30T05:05:53;5.30;99.90
42907;DHT22;28552;51.146;6.576;2023-04-30T05:08:53;5.30;99.90
42907;DHT22;28552;51.146;6.576;2023-04-30T05:11:54;5.30;99.90
42907;DHT22;28552;51.146;6.576;2023-04-30T05:14:54;5.30;99.90
42907;DHT22;28552;51.146;6.576;2023-04-30T05:17:55;5.40;99.90
42907;DHT22;28552;51.146;6.576;2023-04-30T05:20:55;5.50;99.90
42907;DHT22;28552;51.146;6.576;2023-04-30T05:23:56;5.60;99.90
42907;DHT22;28552;51.146;6.576;2023-04-30T05:26:57;5.70;99.90
42907;DHT22;28552;51.146;6.576;2023-04-30T05:29:57;5.80;99.90
42907;DHT22;28552;51.146;6.576;2023-04-30T05:32:58;5.90;99.90
42907;DHT22;28552;51.146;6.576;2023-04-30T05:35:58;6.10;99.90
42907;DHT22;28552;51.146;6.576;2023-04-30T05:38:59;6.30;99.90
42907;DHT22;28552;51.146;6.576;2023-04-30T05:41:59;6.50;99.90
42907;DHT22;28552;51.146;6.576;2023-04-30T05:45:01;6.70;99.90
42907;DHT22;28552;51.146;6.576;2023-04-30T05:48:02;7.00;99.90
42907;DHT22;28552;51.146;6.576;2023-04-30T05:51:03;7.30;99.90
42907;DHT22;28552;51.146;6.576;2023-04-30T05:54:05;7.60;99.90
42907;DHT22;28552;51.146;6.576;2023-04-30T05:57:06;7.90;99.90
42907;DHT22;28552;51.146;6.576;2023-04-30T06:00:07;8.20;99.90
42907;DHT22;28552;51.146;6.576;2023-04-30T06:03:08;8.40;99.90
42907;DHT22;28552;51.146;6.576;2023-04-30T06:06:08;8.70;99.90
42907;DHT22;28552;51.146;6.576;2023-04-30T06:09:09;8.90;99.90
42907;DHT22;28552;51.146;6.576;2023-04-30T06:12:09;9.00;99.90
42907;DHT22;28552;51.146;6.576;2023-04-30T06:15:10;9.20;99.90
42907;DHT22;28552;51.146;6.576;2023-04-30T06:18:11;9.40;99.90
42907;DHT22;28552;51.146;6.576;2023-04-30T06:21:13;9.60;99.90
42907;DHT22;28552;51.146;6.576;2023-04-30T06:24:13;9.80;99.90
42907;DHT22;28552;51.146;6.576;2023-04-30T06:27:14;10.00;99.90
42907;DHT22;28552;51.146;6.576;2023-04-30T06:30:15;10.30;99.90
42907;DHT22;28552;51.146;6.576;2023-04-30T06:33:15;10.40;99.90
42907;DHT22;28552;51.146;6.576;2023-04-30T06:36:16;10.60;99.90
42907;DHT22;28552;51.146;6.576;2023-04-30T06:39:16;10.70;99.90
42907;DHT22;28552;51.146;6.576;2023-04-30T06:42:17;10.90;99.90
42907;DHT22;28552;51.146;6.576;2023-04-30T06:45:17;11.00;99.90
42907;DHT22;28552;51.146;6.576;2023-04-30T06:48:18;11.10;99.90
42907;DHT22;28552;51.146;6.576;2023-04-30T06:51:19;11.30;99.90
42907;DHT22;28552;51.146;6.576;2023-04-30T06:54:20;11.50;99.90
42907;DHT22;28552;51.146;6.576;2023-04-30T06:57:22;11.60;99.90
42907;DHT22;28552;51.146;6.576;2023-04-30T07:00:22;11.80;99.90
42907;DHT22;28552;51.146;6.576;2023-04-30T07:03:23;11.90;99.90
42907;DHT22;28552;51.146;6.576;2023-04-30T07:06:23;12.00;99.90
42907;DHT22;28552;51.146;6.576;2023-04-30T07:09:24;12.20;99.90
42907;DHT22;28552;51.146;6.576;2023-04-30T07:12:25;12.40;99.90
42907;DHT22;28552;51.146;6.576;2023-04-30T07:15:26;12.50;99.90
42907;DHT22;28552;51.146;6.576;2023-04-30T07:18:26;12.70;99.90
42907;DHT22;28552;51.146;6.576;2023-04-30T07:21:27;13.00;99.90
42907;DHT22;28552;51.146;6.576;2023-04-30T07:24:27;13.10;99.90
42907;DHT22;28552;51.146;6.576;2023-04-30T07:27:28;13.30;99.90
42907;DHT22;28552;51.146;6.576;2023-04-30T07:30:28;13.50;99.90
42907;DHT22;28552;51.146;6.576;2023-04-30T07:33:29;13.60;99.90
42907;DHT22;28552;51.146;6.576;2023-04-30T07:36:29;13.70;99.90
42907;DHT22;28552;51.146;6.576;2023-04-30T07:39:30;13.80;99.90
42907;DHT22;28552;51.146;6.576;2023-04-30T07:42:31;13.80;99.90
42907;DHT22;28552;51.146;6.576;2023-04-30T07:45:32;13.80;99.90
42907;DHT22;28552;51.146;6.576;2023-04-30T07:48:34;14.00;99.90
42907;DHT22;28552;51.146;6.576;2023-04-30T07:51:34;14.20;99.90
42907;DHT22;28552;51.146;6.576;2023-04-30T07:54:36;14.40;99.90
42907;DHT22;28552;51.146;6.576;2023-04-30T07:57:38;14.60;99.90
42907;DHT22;28552;51.146;6.576;2023-04-30T08:00:38;14.80;99.90
42907;DHT22;28552;51.146;6.576;2023-04-30T08:03:39;15.00;99.90
42907;DHT22;28552;51.146;6.576;2023-04-30T08:06:40;15.30;99.90
42907;DHT22;28552;51.146;6.576;2023-04-30T08:09:41;15.30;99.90
42907;DHT22;28552;51.146;6.576;2023-04-30T08:12:41;15.40;99.90
42907;DHT22;28552;51.146;6.576;2023-04-30T08:15:42;15.50;99.90
42907;DHT22;28552;51.146;6.576;2023-04-30T08:18:42;15.60;99.90
42907;DHT22;28552;51.146;6.576;2023-04-30T08:21:44;15.60;99.90
42907;DHT22;28552;51.146;6.576;2023-04-30T08:24:44;15.80;99.90
42907;DHT22;28552;51.146;6.576;2023-04-30T08:27:45;16.00;99.90
42907;DHT22;28552;51.146;6.576;2023-04-30T08:30:47;16.10;99.90
42907;DHT22;28552;51.146;6.576;2023-04-30T08:33:48;16.30;99.90
42907;DHT22;28552;51.146;6.576;2023-04-30T08:36:48;16.40;99.90
42907;DHT22;28552;51.146;6.576;2023-04-30T08:39:49;16.60;99.90
42907;DHT22;28552;51.146;6.576;2023-04-30T08:43:01;16.80;99.90
42907;DHT22;28552;51.146;6.576;2023-04-30T08:46:04;17.00;99.90
42907;DHT22;28552;51.146;6.576;2023-04-30T08:49:05;17.30;99.90
42907;DHT22;28552;51.146;6.576;2023-04-30T08:52:07;17.50;99.90
42907;DHT22;28552;51.146;6.576;2023-04-30T08:55:08;17.40;99.90
42907;DHT22;28552;51.146;6.576;2023-04-30T08:58:10;17.20;99.90
42907;DHT22;28552;51.146;6.576;2023-04-30T09:01:10;16.80;99.90
42907;DHT22;28552;51.146;6.576;2023-04-30T09:04:11;16.30;99.90
42907;DHT22;28552;51.146;6.576;2023-04-30T09:07:12;15.90;99.90
42907;DHT22;28552;51.146;6.576;2023-04-30T09:10:16;15.60;99.90
42907;DHT22;28552;51.146;6.576;2023-04-30T09:13:17;15.40;99.90
42907;DHT22;28552;51.146;6.576;2023-04-30T09:16:18;15.20;99.90
42907;DHT22;28552;51.146;6.576;2023-04-30T09:19:25;15.10;99.90
42907;DHT22;28552;51.146;6.576;2023-04-30T09:22:26;15.00;99.90
42907;DHT22;28552;51.146;6.576;2023-04-30T09:25:38;14.90;99.90
42907;DHT22;28552;51.146;6.576;2023-04-30T09:28:53;14.80;99.90
42907;DHT22;28552;51.146;6.576;2023-04-30T09:32:07;14.70;99.90
42907;DHT22;28552;51.146;6.576;2023-04-30T09:35:28;14.60;99.90
42907;DHT22;28552;51.146;6.576;2023-04-30T09:38:30;14.70;99.90
42907;DHT22;28552;51.146;6.576;2023-04-30T09:41:31;14.80;99.90
42907;DHT22;28552;51.146;6.576;2023-04-30T09:44:36;14.80;99.90
42907;DHT22;28552;51.146;6.576;2023-04-30T09:47:38;14.90;99.90
42907;DHT22;28552;51.146;6.576;2023-04-30T09:50:39;15.00;99.90
42907;DHT22;28552;51.146;6.576;2023-04-30T09:53:41;15.00;99.90
42907;DHT22;28552;51.146;6.576;2023-04-30T09:56:43;15.10;99.90
42907;DHT22;28552;51.146;6.576;2023-04-30T09:59:45;15.20;99.90
42907;DHT22;28552;51.146;6.576;2023-04-30T10:02:45;15.20;99.90
42907;DHT22;28552;51.146;6.576;2023-04-30T10:05:47;15.30;99.90
42907;DHT22;28552;51.146;6.576;2023-04-30T10:08:53;15.40;99.90
42907;DHT22;28552;51.146;6.576;2023-04-30T10:11:56;15.50;99.90
42907;DHT22;28552;51.146;6.576;2023-04-30T10:15:08;15.60;99.90
42907;DHT22;28552;51.146;6.576;2023-04-30T10:18:17;15.60;99.90
42907;DHT22;28552;51.146;6.576;2023-04-30T10:21:22;15.50;99.90
42907;DHT22;28552;51.146;6.576;2023-04-30T10:24:24;15.50;99.90
42907;DHT22;28552;51.146;6.576;2023-04-30T10:27:24;15.60;99.90
42907;DHT22;28552;51.146;6.576;2023-04-30T10:30:25;15.70;99.90
42907;DHT22;28552;51.146;6.576;2023-04-30T10:36:46;16.10;99.90
42907;DHT22;28552;51.146;6.576;2023-04-30T10:39:50;16.20;99.90
42907;DHT22;28552;51.146;6.576;2023-04-30T10:42:53;16.30;99.90
42907;DHT22;28552;51.146;6.576;2023-04-30T10:45:56;16.50;99.90
42907;DHT22;28552;51.146;6.576;2023-04-30T10:48:57;16.70;99.90
42907;DHT22;28552;51.146;6.576;2023-04-30T10:52:01;16.70;99.90
42907;DHT22;28552;51.146;6.576;2023-04-30T10:55:04;16.60;99.90
42907;DHT22;28552;51.146;6.576;2023-04-30T10:58:29;16.60;99.90
42907;DHT22;28552;51.146;6.576;2023-04-30T11:01:30;16.60;99.90
42907;DHT22;28552;51.146;6.576;2023-04-30T11:04:31;16.60;99.90
42907;DHT22;28552;51.146;6.576;2023-04-30T11:07:32;16.60;99.90
42907;DHT22;28552;51.146;6.576;2023-04-30T11:10:33;16.60;99.90
42907;DHT22;28552;51.146;6.576;2023-04-30T11:13:40;16.80;99.90
42907;DHT22;28552;51.146;6.576;2023-04-30T11:16:41;16.90;99.90
42907;DHT22;28552;51.146;6.576;2023-04-30T11:19:46;17.10;99.90
42907;DHT22;28552;51.146;6.576;2023-04-30T11:22:48;17.30;99.90
42907;DHT22;28552;51.146;6.576;2023-04-30T11:26:07;17.50;99.90
42907;DHT22;28552;51.146;6.576;2023-04-30T11:29:08;17.70;99.90
42907;DHT22;28552;51.146;6.576;2023-04-30T11:32:09;17.90;99.90
42907;DHT22;28552;51.146;6.576;2023-04-30T11:35:10;17.90;99.90
42907;DHT22;28552;51.146;6.576;2023-04-30T11:38:12;18.00;99.90
42907;DHT22;28552;51.146;6.576;2023-04-30T11:41:13;18.50;99.90
42907;DHT22;28552;51.146;6.576;2023-04-30T11:44:22;18.80;99.90
42907;DHT22;28552;51.146;6.576;2023-04-30T11:47:23;18.90;99.90
42907;DHT22;28552;51.146;6.576;2023-04-30T11:50:25;19.00;99.90
42907;DHT22;28552;51.146;6.576;2023-04-30T11:53:28;19.00;99.90
42907;DHT22;28552;51.146;6.576;2023-04-30T11:56:29;19.00;99.90
42907;DHT22;28552;51.146;6.576;2023-04-30T11:59:30;18.80;99.90
42907;DHT22;28552;51.146;6.576;2023-04-30T12:02:31;18.90;99.90
42907;DHT22;28552;51.146;6.576;2023-04-30T12:05:32;19.10;99.90
42907;DHT22;28552;51.146;6.576;2023-04-30T12:08:32;19.30;99.90
42907;DHT22;28552;51.146;6.576;2023-04-30T12:11:34;19.50;99.90
42907;DHT22;28552;51.146;6.576;2023-04-30T12:14:35;19.50;99.10
42907;DHT22;28552;51.146;6.576;2023-04-30T12:17:36;19.40;98.70
42907;DHT22;28552;51.146;6.576;2023-04-30T12:20:36;19.10;99.40
42907;DHT22;28552;51.146;6.576;2023-04-30T12:23:37;18.90;99.70
42907;DHT22;28552;51.146;6.576;2023-04-30T12:26:39;18.90;99.90
42907;DHT22;28552;51.146;6.576;2023-04-30T12:29:43;19.20;99.90
42907;DHT22;28552;51.146;6.576;2023-04-30T12:32:48;19.50;99.90
42907;DHT22;28552;51.146;6.576;2023-04-30T12:35:51;19.80;98.10
42907;DHT22;28552;51.146;6.576;2023-04-30T12:39:00;19.90;97.90
42907;DHT22;28552;51.146;6.576;2023-04-30T12:42:02;19.90;97.40
42907;DHT22;28552;51.146;6.576;2023-04-30T12:45:04;19.90;97.70
42907;DHT22;28552;51.146;6.576;2023-04-30T12:48:04;19.70;96.40
42907;DHT22;28552;51.146;6.576;2023-04-30T12:51:05;19.50;96.50
42907;DHT22;28552;51.146;6.576;2023-04-30T12:54:06;19.30;96.50
42907;DHT22;28552;51.146;6.576;2023-04-30T12:57:09;19.10;97.00
42907;DHT22;28552;51.146;6.576;2023-04-30T13:00:10;19.10;97.70
42907;DHT22;28552;51.146;6.576;2023-04-30T13:03:12;19.20;97.10
42907;DHT22;28552;51.146;6.576;2023-04-30T13:06:13;19.30;97.00
42907;DHT22;28552;51.146;6.576;2023-04-30T13:09:13;19.30;97.10
42907;DHT22;28552;51.146;6.576;2023-04-30T13:12:14;19.30;96.50
42907;DHT22;28552;51.146;6.576;2023-04-30T13:15:14;19.40;95.90
42907;DHT22;28552;51.146;6.576;2023-04-30T13:18:15;19.60;95.90
42907;DHT22;28552;51.146;6.576;2023-04-30T13:21:15;19.80;97.20
42907;DHT22;28552;51.146;6.576;2023-04-30T13:24:16;20.00;95.80
42907;DHT22;28552;51.146;6.576;2023-04-30T13:27:18;20.20;95.50
42907;DHT22;28552;51.146;6.576;2023-04-30T13:30:18;20.30;95.40
42907;DHT22;28552;51.146;6.576;2023-04-30T13:33:19;20.30;95.10
42907;DHT22;28552;51.146;6.576;2023-04-30T13:36:20;20.40;94.40
42907;DHT22;28552;51.146;6.576;2023-04-30T13:39:20;20.40;94.90
42907;DHT22;28552;51.146;6.576;2023-04-30T13:42:21;20.30;94.10
42907;DHT22;28552;51.146;6.576;2023-04-30T13:45:21;20.10;94.40
42907;DHT22;28552;51.146;6.576;2023-04-30T13:48:22;20.00;94.50
42907;DHT22;28552;51.146;6.576;2023-04-30T13:51:23;19.90;94.50
42907;DHT22;28552;51.146;6.576;2023-04-30T13:54:23;19.80;94.50
42907;DHT22;28552;51.146;6.576;2023-04-30T13:57:24;19.80;93.60
42907;DHT22;28552;51.146;6.576;2023-04-30T14:00:25;19.90;93.70
42907;DHT22;28552;51.146;6.576;2023-04-30T14:03:25;19.80;93.70
42907;DHT22;28552;51.146;6.576;2023-04-30T14:06:26;19.70;94.10
42907;DHT22;28552;51.146;6.576;2023-04-30T14:09:28;19.70;93.90
42907;DHT22;28552;51.146;6.576;2023-04-30T14:12:29;19.80;94.10
42907;DHT22;28552;51.146;6.576;2023-04-30T14:15:29;19.80;93.90
42907;DHT22;28552;51.146;6.576;2023-04-30T14:18:31;19.70;93.30
42907;DHT22;28552;51.146;6.576;2023-04-30T14:21:32;19.70;94.40
42907;DHT22;28552;51.146;6.576;2023-04-30T14:24:32;19.80;93.10
42907;DHT22;28552;51.146;6.576;2023-04-30T14:27:34;19.90;94.40
42907;DHT22;28552;51.146;6.576;2023-04-30T14:30:34;20.00;94.20
42907;DHT22;28552;51.146;6.576;2023-04-30T14:33:35;19.90;93.40
42907;DHT22;28552;51.146;6.576;2023-04-30T14:36:35;19.90;92.60
42907;DHT22;28552;51.146;6.576;2023-04-30T14:39:37;19.90;93.10
42907;DHT22;28552;51.146;6.576;2023-04-30T14:42:38;19.90;92.90
42907;DHT22;28552;51.146;6.576;2023-04-30T14:45:38;19.80;92.30
42907;DHT22;28552;51.146;6.576;2023-04-30T14:48:39;19.70;92.30
42907;DHT22;28552;51.146;6.576;2023-04-30T14:51:39;19.70;92.40
42907;DHT22;28552;51.146;6.576;2023-04-30T14:54:40;19.80;92.40
42907;DHT22;28552;51.146;6.576;2023-04-30T14:57:41;19.80;92.40
42907;DHT22;28552;51.146;6.576;2023-04-30T15:00:41;19.90;92.40
42907;DHT22;28552;51.146;6.576;2023-04-30T15:03:42;20.00;91.30
42907;DHT22;28552;51.146;6.576;2023-04-30T15:06:43;20.00;92.50
42907;DHT22;28552;51.146;6.576;2023-04-30T15:09:43;20.20;91.60
42907;DHT22;28552;51.146;6.576;2023-04-30T15:12:45;20.10;91.30
42907;DHT22;28552;51.146;6.576;2023-04-30T15:15:46;20.00;92.40
42907;DHT22;28552;51.146;6.576;2023-04-30T15:18:48;19.90;91.80
42907;DHT22;28552;51.146;6.576;2023-04-30T15:21:49;19.80;91.80
42907;DHT22;28552;51.146;6.576;2023-04-30T15:24:50;19.80;91.30
42907;DHT22;28552;51.146;6.576;2023-04-30T15:27:51;19.80;91.10
42907;DHT22;28552;51.146;6.576;2023-04-30T15:30:52;19.70;91.20
42907;DHT22;28552;51.146;6.576;2023-04-30T15:33:53;19.80;90.60
42907;DHT22;28552;51.146;6.576;2023-04-30T15:36:54;19.80;90.20
42907;DHT22;28552;51.146;6.576;2023-04-30T15:39:58;19.80;90.90
42907;DHT22;28552;51.146;6.576;2023-04-30T15:42:58;19.90;90.60
42907;DHT22;28552;51.146;6.576;2023-04-30T15:45:59;19.90;90.50
42907;DHT22;28552;51.146;6.576;2023-04-30T15:48:59;19.80;90.50
42907;DHT22;28552;51.146;6.576;2023-04-30T15:52:00;19.80;90.00
42907;DHT22;28552;51.146;6.576;2023-04-30T15:55:00;19.70;89.60
42907;DHT22;28552;51.146;6.576;2023-04-30T15:58:01;19.70;90.60
42907;DHT22;28552;51.146;6.576;2023-04-30T16:01:03;19.80;91.60
42907;DHT22;28552;51.146;6.576;2023-04-30T16:04:03;19.90;90.80
42907;DHT22;28552;51.146;6.576;2023-04-30T16:07:04;20.00;90.70
42907;DHT22;28552;51.146;6.576;2023-04-30T16:10:05;20.10;90.10
42907;DHT22;28552;51.146;6.576;2023-04-30T16:13:06;20.20;88.30
42907;DHT22;28552;51.146;6.576;2023-04-30T16:16:07;20.20;88.40
42907;DHT22;28552;51.146;6.576;2023-04-30T16:19:08;20.40;87.70
42907;DHT22;28552;51.146;6.576;2023-04-30T16:22:09;20.50;87.00
42907;DHT22;28552;51.146;6.576;2023-04-30T16:25:10;20.60;87.50
42907;DHT22;28552;51.146;6.576;2023-04-30T16:28:10;20.50;85.50
42907;DHT22;28552;51.146;6.576;2023-04-30T16:31:11;20.40;87.50
42907;DHT22;28552;51.146;6.576;2023-04-30T16:34:13;20.20;87.00
42907;DHT22;28552;51.146;6.576;2023-04-30T16:37:13;20.00;86.20
42907;DHT22;28552;51.146;6.576;2023-04-30T16:40:15;19.80;87.20
42907;DHT22;28552;51.146;6.576;2023-04-30T16:43:16;19.50;89.00
42907;DHT22;28552;51.146;6.576;2023-04-30T16:46:16;19.30;89.10
42907;DHT22;28552;51.146;6.576;2023-04-30T16:49:17;19.30;88.00
42907;DHT22;28552;51.146;6.576;2023-04-30T16:52:18;19.20;89.90
42907;DHT22;28552;51.146;6.576;2023-04-30T16:55:18;19.20;87.80
42907;DHT22;28552;51.146;6.576;2023-04-30T16:58:19;19.10;87.30
42907;DHT22;28552;51.146;6.576;2023-04-30T17:01:20;19.00;87.90
42907;DHT22;28552;51.146;6.576;2023-04-30T17:04:21;19.10;87.80
42907;DHT22;28552;51.146;6.576;2023-04-30T17:07:21;19.30;88.00
42907;DHT22;28552;51.146;6.576;2023-04-30T17:10:22;19.40;86.60
42907;DHT22;28552;51.146;6.576;2023-04-30T17:13:22;19.50;87.10
42907;DHT22;28552;51.146;6.576;2023-04-30T17:16:23;19.90;85.40
42907;DHT22;28552;51.146;6.576;2023-04-30T17:19:23;20.40;84.80
42907;DHT22;28552;51.146;6.576;2023-04-30T17:22:24;21.00;83.50
42907;DHT22;28552;51.146;6.576;2023-04-30T17:25:24;21.10;81.80
42907;DHT22;28552;51.146;6.576;2023-04-30T17:28:25;21.00;81.80
42907;DHT22;28552;51.146;6.576;2023-04-30T17:31:27;20.90;81.00
42907;DHT22;28552;51.146;6.576;2023-04-30T17:34:28;20.90;81.60
42907;DHT22;28552;51.146;6.576;2023-04-30T17:37:28;20.80;80.80
42907;DHT22;28552;51.146;6.576;2023-04-30T17:40:29;20.70;81.10
42907;DHT22;28552;51.146;6.576;2023-04-30T17:43:31;20.80;81.00
42907;DHT22;28552;51.146;6.576;2023-04-30T17:46:31;20.90;79.80
42907;DHT22;28552;51.146;6.576;2023-04-30T17:49:32;20.70;79.70
42907;DHT22;28552;51.146;6.576;2023-04-30T17:52:32;20.50;80.40
42907;DHT22;28552;51.146;6.576;2023-04-30T17:55:37;20.30;80.80
42907;DHT22;28552;51.146;6.576;2023-04-30T17:58:38;20.20;81.50
42907;DHT22;28552;51.146;6.576;2023-04-30T18:01:38;19.80;81.80
42907;DHT22;28552;51.146;6.576;2023-04-30T18:04:39;19.20;83.70
42907;DHT22;28552;51.146;6.576;2023-04-30T18:07:40;18.50;85.20
42907;DHT22;28552;51.146;6.576;2023-04-30T18:10:40;18.00;86.80
42907;DHT22;28552;51.146;6.576;2023-04-30T18:13:41;17.60;88.40
42907;DHT22;28552;51.146;6.576;2023-04-30T18:16:42;17.20;89.00
42907;DHT22;28552;51.146;6.576;2023-04-30T18:19:42;17.00;89.50
42907;DHT22;28552;51.146;6.576;2023-04-30T18:22:43;16.70;90.00
42907;DHT22;28552;51.146;6.576;2023-04-30T18:25:44;16.50;90.30
42907;DHT22;28552;51.146;6.576;2023-04-30T18:28:44;16.40;90.60
42907;DHT22;28552;51.146;6.576;2023-04-30T18:31:45;16.20;90.90
42907;DHT22;28552;51.146;6.576;2023-04-30T18:34:46;16.00;91.30
42907;DHT22;28552;51.146;6.576;2023-04-30T18:37:46;15.80;91.60
42907;DHT22;28552;51.146;6.576;2023-04-30T18:40:47;15.60;92.00
42907;DHT22;28552;51.146;6.576;2023-04-30T18:43:47;15.40;92.40
42907;DHT22;28552;51.146;6.576;2023-04-30T18:46:48;15.20;92.50
42907;DHT22;28552;51.146;6.576;2023-04-30T18:49:49;15.00;92.80
42907;DHT22;28552;51.146;6.576;2023-04-30T18:52:49;14.90;93.00
42907;DHT22;28552;51.146;6.576;2023-04-30T18:55:50;14.80;93.30
42907;DHT22;28552;51.146;6.576;2023-04-30T18:58:51;14.70;93.60
42907;DHT22;28552;51.146;6.576;2023-04-30T19:01:52;14.50;93.80
42907;DHT22;28552;51.146;6.576;2023-04-30T19:04:54;14.40;94.10
42907;DHT22;28552;51.146;6.576;2023-04-30T19:07:54;14.20;94.70
42907;DHT22;28552;51.146;6.576;2023-04-30T19:10:55;14.10;94.80
42907;DHT22;28552;51.146;6.576;2023-04-30T19:13:56;14.00;95.20
42907;DHT22;28552;51.146;6.576;2023-04-30T19:16:57;13.80;95.60
42907;DHT22;28552;51.146;6.576;2023-04-30T19:19:59;13.70;96.20
42907;DHT22;28552;51.146;6.576;2023-04-30T19:23:00;13.60;96.10
42907;DHT22;28552;51.146;6.576;2023-04-30T19:26:00;13.50;96.40